sensor_id;sensor_type;location;lat;lon;timestamp;temperature;humidity
18948;DHT22;9607;51.600;7.558;2023-02-22T00:01:11;8.10;99.90
18948;DHT22;9607;51.600;7.558;2023-02-22T00:03:48;8.00;99.90
18948;DHT22;9607;51.600;7.558;2023-02-22T00:06:19;7.90;99.90
18948;DHT22;9607;51.600;7.558;2023-02-22T00:08:47;7.80;99.90
18948;DHT22;9607;51.600;7.558;2023-02-22T00:11:15;7.60;99.90
18948;DHT22;9607;51.600;7.558;2023-02-22T00:13:42;7.50;99.90
18948;DHT22;9607;51.600;7.558;2023-02-22T00:16:13;7.30;99.90
18948;DHT22;9607;51.600;7.558;2023-02-22T00:18:40;7.20;99.90
18948;DHT22;9607;51.600;7.558;2023-02-22T00:21:07;7.00;99.90
18948;DHT22;9607;51.600;7.558;2023-02-22T00:23:38;6.90;99.90
18948;DHT22;9607;51.600;7.558;2023-02-22T00:26:08;6.90;99.90
18948;DHT22;9607;51.600;7.558;2023-02-22T00:28:35;6.70;99.90
18948;DHT22;9607;51.600;7.558;2023-02-22T00:31:02;6.60;99.90
18948;DHT22;9607;51.600;7.558;2023-02-22T00:33:31;6.50;99.90
18948;DHT22;9607;51.600;7.558;2023-02-22T00:35:58;6.40;99.90
18948;DHT22;9607;51.600;7.558;2023-02-22T00:38:25;6.30;99.90
18948;DHT22;9607;51.600;7.558;2023-02-22T00:40:53;6.20;99.90
18948;DHT22;9607;51.600;7.558;2023-02-22T00:43:20;6.10;99.90
18948;DHT22;9607;51.600;7.558;2023-02-22T00:45:47;6.00;99.90
18948;DHT22;9607;51.600;7.558;2023-02-22T00:48:14;6.00;99.90
18948;DHT22;9607;51.600;7.558;2023-02-22T00:50:45;5.90;99.90
18948;DHT22;9607;51.600;7.558;2023-02-22T00:53:13;5.80;99.90
18948;DHT22;9607;51.600;7.558;2023-02-22T00:55:40;5.70;99.90
18948;DHT22;9607;51.600;7.558;2023-02-22T00:58:09;5.60;99.90
18948;DHT22;9607;51.600;7.558;2023-02-22T01:00:40;5.60;99.90
18948;DHT22;9607;51.600;7.558;2023-02-22T01:03:10;5.50;99.90
18948;DHT22;9607;51.600;7.558;2023-02-22T01:05:38;5.50;99.90
18948;DHT22;9607;51.600;7.558;2023-02-22T01:08:06;5.50;99.90
18948;DHT22;9607;51.600;7.558;2023-02-22T01:10:35;5.50;99.90
18948;DHT22;9607;51.600;7.558;2023-02-22T01:13:02;5.60;99.90
18948;DHT22;9607;51.600;7.558;2023-02-22T01:15:35;5.60;99.90
18948;DHT22;9607;51.600;7.558;2023-02-22T01:18:04;5.80;99.90
18948;DHT22;9607;51.600;7.558;2023-02-22T01:20:31;5.90;99.90
18948;DHT22;9607;51.600;7.558;2023-02-22T01:23:00;6.00;99.90
18948;DHT22;9607;51.600;7.558;2023-02-22T01:25:29;6.20;99.90
18948;DHT22;9607;51.600;7.558;2023-02-22T01:27:57;6.30;99.90
18948;DHT22;9607;51.600;7.558;2023-02-22T01:30:26;6.50;99.90
18948;DHT22;9607;51.600;7.558;2023-02-22T01:32:55;6.50;99.90
18948;DHT22;9607;51.600;7.558;2023-02-22T01:35:24;6.60;99.90
18948;DHT22;9607;51.600;7.558;2023-02-22T01:37:52;6.70;99.90
18948;DHT22;9607;51.600;7.558;2023-02-22T01:40:20;6.70;99.90
18948;DHT22;9607;51.600;7.558;2023-02-22T01:42:50;6.90;99.90
18948;DHT22;9607;51.600;7.558;2023-02-22T01:45:37;7.00;99.90
18948;DHT22;9607;51.600;7.558;2023-02-22T01:48:10;7.10;99.90
18948;DHT22;9607;51.600;7.558;2023-02-22T01:50:40;7.10;99.90
18948;DHT22;9607;51.600;7.558;2023-02-22T01:53:10;7.20;99.90
18948;DHT22;9607;51.600;7.558;2023-02-22T01:55:39;7.30;99.90
18948;DHT22;9607;51.600;7.558;2023-02-22T01:58:07;7.30;99.90
18948;DHT22;9607;51.600;7.558;2023-02-22T02:00:35;7.40;99.90
18948;DHT22;9607;51.600;7.558;2023-02-22T02:03:04;7.40;99.90
18948;DHT22;9607;51.600;7.558;2023-02-22T02:05:34;7.50;99.90
18948;DHT22;9607;51.600;7.558;2023-02-22T02:08:09;7.50;99.90
18948;DHT22;9607;51.600;7.558;2023-02-22T02:10:39;7.50;99.90
18948;DHT22;9607;51.600;7.558;2023-02-22T02:13:07;7.60;99.90
18948;DHT22;9607;51.600;7.558;2023-02-22T02:15:35;7.60;99.90
18948;DHT22;9607;51.600;7.558;2023-02-22T02:18:05;7.60;99.90
18948;DHT22;9607;51.600;7.558;2023-02-22T02:20:38;7.70;99.90
18948;DHT22;9607;51.600;7.558;2023-02-22T02:23:23;7.70;99.90
18948;DHT22;9607;51.600;7.558;2023-02-22T02:26:25;7.70;99.90
18948;DHT22;9607;51.600;7.558;2023-02-22T02:29:30;7.70;99.90
18948;DHT22;9607;51.600;7.558;2023-02-22T02:32:17;7.70;99.90
18948;DHT22;9607;51.600;7.558;2023-02-22T02:34:49;7.70;99.90
18948;DHT22;9607;51.600;7.558;2023-02-22T02:37:29;7.70;99.90
18948;DHT22;9607;51.600;7.558;2023-02-22T02:40:05;7.70;99.90
18948;DHT22;9607;51.600;7.558;2023-02-22T02:42:39;7.70;99.90
18948;DHT22;9607;51.600;7.558;2023-02-22T02:45:10;7.70;99.90
18948;DHT22;9607;51.600;7.558;2023-02-22T02:47:42;7.70;99.90
18948;DHT22;9607;51.600;7.558;2023-02-22T02:50:15;7.70;99.90
18948;DHT22;9607;51.600;7.558;2023-02-22T02:52:44;7.60;99.90
18948;DHT22;9607;51.600;7.558;2023-02-22T02:55:12;7.60;99.90
18948;DHT22;9607;51.600;7.558;2023-02-22T02:57:39;7.60;99.90
18948;DHT22;9607;51.600;7.558;2023-02-22T03:00:07;7.60;99.90
18948;DHT22;9607;51.600;7.558;2023-02-22T03:02:57;7.60;99.90
18948;DHT22;9607;51.600;7.558;2023-02-22T03:05:50;7.50;99.90
18948;DHT22;9607;51.600;7.558;2023-02-22T03:08:25;7.50;99.90
18948;DHT22;9607;51.600;7.558;2023-02-22T03:11:00;7.60;99.90
18948;DHT22;9607;51.600;7.558;2023-02-22T03:13:34;7.50;99.90
18948;DHT22;9607;51.600;7.558;2023-02-22T03:16:11;7.50;99.90
18948;DHT22;9607;51.600;7.558;2023-02-22T03:18:49;7.50;99.90
18948;DHT22;9607;51.600;7.558;2023-02-22T03:21:23;7.40;99.90
18948;DHT22;9607;51.600;7.558;2023-02-22T03:23:58;7.40;99.90
18948;DHT22;9607;51.600;7.558;2023-02-22T03:26:30;7.40;99.90
18948;DHT22;9607;51.600;7.558;2023-02-22T03:28:59;7.30;99.90
18948;DHT22;9607;51.600;7.558;2023-02-22T03:31:33;7.30;99.90
18948;DHT22;9607;51.600;7.558;2023-02-22T03:34:07;7.20;99.90
18948;DHT22;9607;51.600;7.558;2023-02-22T03:36:37;7.20;99.90
18948;DHT22;9607;51.600;7.558;2023-02-22T03:39:09;7.20;99.90
18948;DHT22;9607;51.600;7.558;2023-02-22T03:41:44;7.20;99.90
18948;DHT22;9607;51.600;7.558;2023-02-22T03:44:19;7.10;99.90
18948;DHT22;9607;51.600;7.558;2023-02-22T03:46:48;7.10;99.90
18948;DHT22;9607;51.600;7.558;2023-02-22T03:49:24;7.10;99.90
18948;DHT22;9607;51.600;7.558;2023-02-22T03:51:56;7.10;99.90
18948;DHT22;9607;51.600;7.558;2023-02-22T03:54:23;7.00;99.90
18948;DHT22;9607;51.600;7.558;2023-02-22T03:56:53;7.00;99.90
18948;DHT22;9607;51.600;7.558;2023-02-22T03:59:25;7.00;99.90
18948;DHT22;9607;51.600;7.558;2023-02-22T04:01:53;7.00;99.90
18948;DHT22;9607;51.600;7.558;2023-02-22T04:04:25;6.90;99.90
18948;DHT22;9607;51.600;7.558;2023-02-22T04:06:52;6.90;99.90
18948;DHT22;9607;51.600;7.558;2023-02-22T04:09:19;6.90;99.90
18948;DHT22;9607;51.600;7.558;2023-02-22T04:11:46;6.80;99.90
18948;DHT22;9607;51.600;7.558;2023-02-22T04:14:13;6.80;99.90
18948;DHT22;9607;51.600;7.558;2023-02-22T04:16:40;6.80;99.90
18948;DHT22;9607;51.600;7.558;2023-02-22T04:19:06;6.70;99.90
18948;DHT22;9607;51.600;7.558;2023-02-22T04:21:35;6.70;99.90
18948;DHT22;9607;51.600;7.558;2023-02-22T04:24:02;6.70;99.90
18948;DHT22;9607;51.600;7.558;2023-02-22T04:26:29;6.60;99.90
18948;DHT22;9607;51.600;7.558;2023-02-22T04:28:55;6.60;99.90
18948;DHT22;9607;51.600;7.558;2023-02-22T04:31:22;6.60;99.90
18948;DHT22;9607;51.600;7.558;2023-02-22T04:33:49;6.60;99.90
18948;DHT22;9607;51.600;7.558;2023-02-22T04:36:16;6.60;99.90
18948;DHT22;9607;51.600;7.558;2023-02-22T04:38:44;6.60;99.90
18948;DHT22;9607;51.600;7.558;2023-02-22T04:41:12;6.50;99.90
18948;DHT22;9607;51.600;7.558;2023-02-22T04:43:39;6.50;99.90
18948;DHT22;9607;51.600;7.558;2023-02-22T04:46:05;6.50;99.90
18948;DHT22;9607;51.600;7.558;2023-02-22T04:48:33;6.40;99.90
18948;DHT22;9607;51.600;7.558;2023-02-22T04:50:59;6.40;99.90
18948;DHT22;9607;51.600;7.558;2023-02-22T04:53:26;6.40;99.90
18948;DHT22;9607;51.600;7.558;2023-02-22T04:55:54;6.40;99.90
18948;DHT22;9607;51.600;7.558;2023-02-22T04:58:21;6.40;99.90
18948;DHT22;9607;51.600;7.558;2023-02-22T05:00:48;6.40;99.90
18948;DHT22;9607;51.600;7.558;2023-02-22T05:03:15;6.40;99.90
18948;DHT22;9607;51.600;7.558;2023-02-22T05:05:42;6.30;99.90
18948;DHT22;9607;51.600;7.558;2023-02-22T05:08:12;6.30;99.90
18948;DHT22;9607;51.600;7.558;2023-02-22T05:10:39;6.30;99.90
18948;DHT22;9607;51.600;7.558;2023-02-22T05:13:07;6.20;99.90
18948;DHT22;9607;51.600;7.558;2023-02-22T05:15:34;6.20;99.90
18948;DHT22;9607;51.600;7.558;2023-02-22T05:18:01;6.20;99.90
18948;DHT22;9607;51.600;7.558;2023-02-22T05:20:30;6.10;99.90
18948;DHT22;9607;51.600;7.558;2023-02-22T05:22:58;6.10;99.90
18948;DHT22;9607;51.600;7.558;2023-02-22T05:25:26;6.10;99.90
18948;DHT22;9607;51.600;7.558;2023-02-22T05:27:54;6.00;99.90
18948;DHT22;9607;51.600;7.558;2023-02-22T05:30:25;5.90;99.90
18948;DHT22;9607;51.600;7.558;2023-02-22T05:32:52;5.90;99.90
18948;DHT22;9607;51.600;7.558;2023-02-22T05:35:19;5.80;99.90
18948;DHT22;9607;51.600;7.558;2023-02-22T05:37:46;5.70;99.90
18948;DHT22;9607;51.600;7.558;2023-02-22T05:40:16;5.70;99.90
18948;DHT22;9607;51.600;7.558;2023-02-22T05:42:43;5.60;99.90
18948;DHT22;9607;51.600;7.558;2023-02-22T05:45:12;5.60;99.90
18948;DHT22;9607;51.600;7.558;2023-02-22T05:47:41;5.50;99.90
18948;DHT22;9607;51.600;7.558;2023-02-22T05:50:08;5.40;99.90
18948;DHT22;9607;51.600;7.558;2023-02-22T05:52:35;5.40;99.90
18948;DHT22;9607;51.600;7.558;2023-02-22T05:55:03;5.40;99.90
18948;DHT22;9607;51.600;7.558;2023-02-22T05:57:30;5.30;99.90
18948;DHT22;9607;51.600;7.558;2023-02-22T05:59:56;5.30;99.90
18948;DHT22;9607;51.600;7.558;2023-02-22T06:02:23;5.20;99.90
18948;DHT22;9607;51.600;7.558;2023-02-22T06:04:51;5.20;99.90
18948;DHT22;9607;51.600;7.558;2023-02-22T06:07:18;5.20;99.90
18948;DHT22;9607;51.600;7.558;2023-02-22T06:09:45;5.20;99.90
18948;DHT22;9607;51.600;7.558;2023-02-22T06:12:12;5.20;99.90
18948;DHT22;9607;51.600;7.558;2023-02-22T06:14:39;5.20;99.90
18948;DHT22;9607;51.600;7.558;2023-02-22T06:17:12;5.10;99.90
18948;DHT22;9607;51.600;7.558;2023-02-22T06:19:38;5.20;99.90
18948;DHT22;9607;51.600;7.558;2023-02-22T06:22:13;5.20;99.90
18948;DHT22;9607;51.600;7.558;2023-02-22T06:24:41;5.20;99.90
18948;DHT22;9607;51.600;7.558;2023-02-22T06:27:08;5.10;99.90
18948;DHT22;9607;51.600;7.558;2023-02-22T06:29:35;5.10;99.90
18948;DHT22;9607;51.600;7.558;2023-02-22T06:32:03;5.20;99.90
18948;DHT22;9607;51.600;7.558;2023-02-22T06:34:29;5.20;99.90
18948;DHT22;9607;51.600;7.558;2023-02-22T06:36:56;5.20;99.90
18948;DHT22;9607;51.600;7.558;2023-02-22T06:39:24;5.10;99.90
18948;DHT22;9607;51.600;7.558;2023-02-22T06:41:51;5.10;99.90
18948;DHT22;9607;51.600;7.558;2023-02-22T06:44:20;5.10;99.90
18948;DHT22;9607;51.600;7.558;2023-02-22T06:46:48;5.10;99.90
18948;DHT22;9607;51.600;7.558;2023-02-22T06:49:16;5.10;99.90
18948;DHT22;9607;51.600;7.558;2023-02-22T06:51:44;5.10;99.90
18948;DHT22;9607;51.600;7.558;2023-02-22T06:54:11;5.10;99.90
18948;DHT22;9607;51.600;7.558;2023-02-22T06:56:39;5.10;99.90
18948;DHT22;9607;51.600;7.558;2023-02-22T06:59:06;5.20;99.90
18948;DHT22;9607;51.600;7.558;2023-02-22T07:01:33;5.20;99.90
18948;DHT22;9607;51.600;7.558;2023-02-22T07:03:59;5.20;99.90
18948;DHT22;9607;51.600;7.558;2023-02-22T07:06:26;5.20;99.90
18948;DHT22;9607;51.600;7.558;2023-02-22T07:08:53;5.30;99.90
18948;DHT22;9607;51.600;7.558;2023-02-22T07:11:20;5.30;99.90
18948;DHT22;9607;51.600;7.558;2023-02-22T07:13:48;5.30;99.90
18948;DHT22;9607;51.600;7.558;2023-02-22T07:16:15;5.40;99.90
18948;DHT22;9607;51.600;7.558;2023-02-22T07:18:42;5.40;99.90
18948;DHT22;9607;51.600;7.558;2023-02-22T07:21:09;5.40;99.90
18948;DHT22;9607;51.600;7.558;2023-02-22T07:23:36;5.40;99.90
18948;DHT22;9607;51.600;7.558;2023-02-22T07:26:04;5.50;99.90
18948;DHT22;9607;51.600;7.558;2023-02-22T07:28:30;5.50;99.90
18948;DHT22;9607;51.600;7.558;2023-02-22T07:30:59;5.50;99.90
18948;DHT22;9607;51.600;7.558;2023-02-22T07:33:26;5.60;99.90
18948;DHT22;9607;51.600;7.558;2023-02-22T07:35:53;5.60;99.90
18948;DHT22;9607;51.600;7.558;2023-02-22T07:38:19;5.70;99.90
18948;DHT22;9607;51.600;7.558;2023-02-22T07:40:46;5.70;99.90
18948;DHT22;9607;51.600;7.558;2023-02-22T07:43:15;5.80;99.90
18948;DHT22;9607;51.600;7.558;2023-02-22T07:45:43;5.80;99.90
18948;DHT22;9607;51.600;7.558;2023-02-22T07:48:12;5.90;99.90
18948;DHT22;9607;51.600;7.558;2023-02-22T07:50:40;5.90;99.90
18948;DHT22;9607;51.600;7.558;2023-02-22T07:53:11;6.00;99.90
18948;DHT22;9607;51.600;7.558;2023-02-22T07:55:38;6.00;99.90
18948;DHT22;9607;51.600;7.558;2023-02-22T07:58:07;6.00;99.90
18948;DHT22;9607;51.600;7.558;2023-02-22T08:00:36;6.10;99.90
18948;DHT22;9607;51.600;7.558;2023-02-22T08:03:05;6.10;99.90
18948;DHT22;9607;51.600;7.558;2023-02-22T08:05:36;6.20;99.90
18948;DHT22;9607;51.600;7.558;2023-02-22T08:08:04;6.30;99.90
18948;DHT22;9607;51.600;7.558;2023-02-22T08:10:32;6.40;99.90
18948;DHT22;9607;51.600;7.558;2023-02-22T08:13:00;6.50;99.90
18948;DHT22;9607;51.600;7.558;2023-02-22T08:15:28;6.50;99.90
18948;DHT22;9607;51.600;7.558;2023-02-22T08:17:56;6.60;99.90
18948;DHT22;9607;51.600;7.558;2023-02-22T08:20:24;6.70;99.90
18948;DHT22;9607;51.600;7.558;2023-02-22T08:22:53;6.80;99.90
18948;DHT22;9607;51.600;7.558;2023-02-22T08:25:22;6.90;99.90
18948;DHT22;9607;51.600;7.558;2023-02-22T08:27:49;7.00;99.90
18948;DHT22;9607;51.600;7.558;2023-02-22T08:30:18;7.10;99.90
18948;DHT22;9607;51.600;7.558;2023-02-22T08:32:45;7.20;99.90
18948;DHT22;9607;51.600;7.558;2023-02-22T08:35:13;7.20;99.90
18948;DHT22;9607;51.600;7.558;2023-02-22T08:37:41;7.30;99.90
18948;DHT22;9607;51.600;7.558;2023-02-22T08:40:11;7.40;99.90
18948;DHT22;9607;51.600;7.558;2023-02-22T08:42:38;7.50;99.90
18948;DHT22;9607;51.600;7.558;2023-02-22T08:45:05;7.60;99.90
18948;DHT22;9607;51.600;7.558;2023-02-22T08:47:33;7.70;99.90
18948;DHT22;9607;51.600;7.558;2023-02-22T08:50:00;7.80;99.90
18948;DHT22;9607;51.600;7.558;2023-02-22T08:52:27;7.90;99.90
18948;DHT22;9607;51.600;7.558;2023-02-22T08:54:54;7.90;99.90
18948;DHT22;9607;51.600;7.558;2023-02-22T08:57:22;8.00;99.90
18948;DHT22;9607;51.600;7.558;2023-02-22T08:59:49;8.10;99.90
18948;DHT22;9607;51.600;7.558;2023-02-22T09:02:19;8.10;99.90
18948;DHT22;9607;51.600;7.558;2023-02-22T09:04:47;8.20;99.90
18948;DHT22;9607;51.600;7.558;2023-02-22T09:07:18;8.30;99.90
18948;DHT22;9607;51.600;7.558;2023-02-22T09:09:45;8.40;99.90
18948;DHT22;9607;51.600;7.558;2023-02-22T09:12:12;8.50;99.90
18948;DHT22;9607;51.600;7.558;2023-02-22T09:14:41;8.60;99.90
18948;DHT22;9607;51.600;7.558;2023-02-22T09:17:08;8.80;99.90
18948;DHT22;9607;51.600;7.558;2023-02-22T09:19:35;8.80;99.90
18948;DHT22;9607;51.600;7.558;2023-02-22T09:22:02;8.90;99.90
18948;DHT22;9607;51.600;7.558;2023-02-22T09:24:29;9.00;99.90
18948;DHT22;9607;51.600;7.558;2023-02-22T09:26:55;9.10;99.90
18948;DHT22;9607;51.600;7.558;2023-02-22T09:29:25;9.20;99.90
18948;DHT22;9607;51.600;7.558;2023-02-22T09:31:54;9.40;99.90
18948;DHT22;9607;51.600;7.558;2023-02-22T09:34:23;9.50;99.90
18948;DHT22;9607;51.600;7.558;2023-02-22T09:36:54;9.60;99.90
18948;DHT22;9607;51.600;7.558;2023-02-22T09:39:22;9.70;99.90
18948;DHT22;9607;51.600;7.558;2023-02-22T09:41:54;9.80;99.90
18948;DHT22;9607;51.600;7.558;2023-02-22T09:44:27;10.00;99.90
18948;DHT22;9607;51.600;7.558;2023-02-22T09:46:56;10.10;99.90
18948;DHT22;9607;51.600;7.558;2023-02-22T09:49:28;10.10;99.90
18948;DHT22;9607;51.600;7.558;2023-02-22T09:52:00;10.30;99.90
18948;DHT22;9607;51.600;7.558;2023-02-22T09:54:30;10.40;99.90
18948;DHT22;9607;51.600;7.558;2023-02-22T09:57:02;10.60;99.90
18948;DHT22;9607;51.600;7.558;2023-02-22T09:59:34;10.60;99.90
18948;DHT22;9607;51.600;7.558;2023-02-22T10:02:17;10.80;99.90
18948;DHT22;9607;51.600;7.558;2023-02-22T10:04:50;10.90;99.90
18948;DHT22;9607;51.600;7.558;2023-02-22T10:07:23;11.00;99.90
18948;DHT22;9607;51.600;7.558;2023-02-22T10:09:54;11.20;99.90
18948;DHT22;9607;51.600;7.558;2023-02-22T10:12:28;11.30;99.90
18948;DHT22;9607;51.600;7.558;2023-02-22T10:15:25;11.40;99.90
18948;DHT22;9607;51.600;7.558;2023-02-22T10:18:16;11.50;99.90
18948;DHT22;9607;51.600;7.558;2023-02-22T10:20:52;11.70;99.90
18948;DHT22;9607;51.600;7.558;2023-02-22T10:23:25;11.80;99.90
18948;DHT22;9607;51.600;7.558;2023-02-22T10:25:58;11.90;99.90
18948;DHT22;9607;51.600;7.558;2023-02-22T10:28:31;12.00;99.90
18948;DHT22;9607;51.600;7.558;2023-02-22T10:31:04;12.10;99.90
18948;DHT22;9607;51.600;7.558;2023-02-22T10:33:37;12.20;99.90
18948;DHT22;9607;51.600;7.558;2023-02-22T10:36:05;12.40;99.90
18948;DHT22;9607;51.600;7.558;2023-02-22T10:38:52;12.50;99.90
18948;DHT22;9607;51.600;7.558;2023-02-22T10:41:25;12.70;99.90
18948;DHT22;9607;51.600;7.558;2023-02-22T10:43:53;12.80;99.90
18948;DHT22;9607;51.600;7.558;2023-02-22T10:46:21;12.90;99.90
18948;DHT22;9607;51.600;7.558;2023-02-22T10:48:51;13.10;99.90
18948;DHT22;9607;51.600;7.558;2023-02-22T10:51:20;13.20;99.90
18948;DHT22;9607;51.600;7.558;2023-02-22T10:53:55;13.30;99.90
18948;DHT22;9607;51.600;7.558;2023-02-22T10:56:24;13.50;99.90
18948;DHT22;9607;51.600;7.558;2023-02-22T10:58:54;13.60;99.90
18948;DHT22;9607;51.600;7.558;2023-02-22T11:01:32;13.80;99.90
18948;DHT22;9607;51.600;7.558;2023-02-22T11:04:05;13.90;99.90
18948;DHT22;9607;51.600;7.558;2023-02-22T11:06:34;14.10;99.90
18948;DHT22;9607;51.600;7.558;2023-02-22T11:09:13;14.20;99.90
18948;DHT22;9607;51.600;7.558;2023-02-22T11:11:41;14.40;99.90
18948;DHT22;9607;51.600;7.558;2023-02-22T11:14:09;14.40;99.90
18948;DHT22;9607;51.600;7.558;2023-02-22T11:16:38;14.60;99.90
18948;DHT22;9607;51.600;7.558;2023-02-22T11:19:20;14.70;99.90
18948;DHT22;9607;51.600;7.558;2023-02-22T11:21:50;14.80;99.90
18948;DHT22;9607;51.600;7.558;2023-02-22T11:24:18;14.90;99.90
18948;DHT22;9607;51.600;7.558;2023-02-22T11:26:50;15.00;99.90
18948;DHT22;9607;51.600;7.558;2023-02-22T11:29:21;15.10;99.90
18948;DHT22;9607;51.600;7.558;2023-02-22T11:31:51;15.20;99.90
18948;DHT22;9607;51.600;7.558;2023-02-22T11:34:32;15.40;99.90
18948;DHT22;9607;51.600;7.558;2023-02-22T11:37:26;15.60;99.90
18948;DHT22;9607;51.600;7.558;2023-02-22T11:40:09;15.90;99.90
18948;DHT22;9607;51.600;7.558;2023-02-22T11:42:38;16.10;99.90
18948;DHT22;9607;51.600;7.558;2023-02-22T11:45:11;16.30;99.90
18948;DHT22;9607;51.600;7.558;2023-02-22T11:47:52;16.50;99.90
18948;DHT22;9607;51.600;7.558;2023-02-22T11:50:26;16.70;99.90
18948;DHT22;9607;51.600;7.558;2023-02-22T11:53:10;16.80;99.90
18948;DHT22;9607;51.600;7.558;2023-02-22T11:55:45;16.90;99.90
18948;DHT22;9607;51.600;7.558;2023-02-22T11:58:28;17.10;99.90
18948;DHT22;9607;51.600;7.558;2023-02-22T12:01:01;17.20;99.90
18948;DHT22;9607;51.600;7.558;2023-02-22T12:06:34;17.50;99.90
18948;DHT22;9607;51.600;7.558;2023-02-22T12:09:10;17.70;99.90
18948;DHT22;9607;51.600;7.558;2023-02-22T12:11:46;17.80;99.90
18948;DHT22;9607;51.600;7.558;2023-02-22T12:14:24;17.90;99.90
18948;DHT22;9607;51.600;7.558;2023-02-22T12:17:12;18.00;99.90
18948;DHT22;9607;51.600;7.558;2023-02-22T12:19:47;18.10;99.90
18948;DHT22;9607;51.600;7.558;2023-02-22T12:22:20;18.20;99.90
18948;DHT22;9607;51.600;7.558;2023-02-22T12:24:54;18.40;99.90
18948;DHT22;9607;51.600;7.558;2023-02-22T12:27:27;18.50;99.90
18948;DHT22;9607;51.600;7.558;2023-02-22T12:29:58;18.70;99.90
18948;DHT22;9607;51.600;7.558;2023-02-22T12:32:31;18.90;99.90
18948;DHT22;9607;51.600;7.558;2023-02-22T12:35:02;19.20;99.90
18948;DHT22;9607;51.600;7.558;2023-02-22T12:37:36;19.40;99.90
18948;DHT22;9607;51.600;7.558;2023-02-22T12:40:11;19.70;99.90
18948;DHT22;9607;51.600;7.558;2023-02-22T12:42:47;20.00;99.90
18948;DHT22;9607;51.600;7.558;2023-02-22T12:45:21;20.50;99.90
18948;DHT22;9607;51.600;7.558;2023-02-22T12:47:57;20.90;99.90
18948;DHT22;9607;51.600;7.558;2023-02-22T12:50:28;21.30;99.90
18948;DHT22;9607;51.600;7.558;2023-02-22T12:53:07;21.80;99.90
18948;DHT22;9607;51.600;7.558;2023-02-22T12:55:43;22.20;97.90
18948;DHT22;9607;51.600;7.558;2023-02-22T12:58:21;22.50;95.70
18948;DHT22;9607;51.600;7.558;2023-02-22T13:00:56;22.70;94.00
18948;DHT22;9607;51.600;7.558;2023-02-22T13:03:33;22.80;92.20
18948;DHT22;9607;51.600;7.558;2023-02-22T13:06:25;22.80;88.40
18948;DHT22;9607;51.600;7.558;2023-02-22T13:09:04;22.60;82.40
18948;DHT22;9607;51.600;7.558;2023-02-22T13:11:39;22.60;82.50
18948;DHT22;9607;51.600;7.558;2023-02-22T13:14:15;22.40;80.90
18948;DHT22;9607;51.600;7.558;2023-02-22T13:16:52;22.20;80.80
18948;DHT22;9607;51.600;7.558;2023-02-22T13:19:32;22.00;82.80
18948;DHT22;9607;51.600;7.558;2023-02-22T13:22:05;21.80;83.20
18948;DHT22;9607;51.600;7.558;2023-02-22T13:24:42;21.60;81.50
18948;DHT22;9607;51.600;7.558;2023-02-22T13:27:14;21.40;82.40
18948;DHT22;9607;51.600;7.558;2023-02-22T13:29:47;21.40;83.70
18948;DHT22;9607;51.600;7.558;2023-02-22T13:32:23;21.40;84.10
18948;DHT22;9607;51.600;7.558;2023-02-22T13:35:09;21.50;87.80
18948;DHT22;9607;51.600;7.558;2023-02-22T13:37:57;21.50;85.40
18948;DHT22;9607;51.600;7.558;2023-02-22T13:40:57;21.60;80.00
18948;DHT22;9607;51.600;7.558;2023-02-22T13:43:53;21.40;79.80
18948;DHT22;9607;51.600;7.558;2023-02-22T13:46:54;21.20;78.80
18948;DHT22;9607;51.600;7.558;2023-02-22T13:49:45;21.10;76.20
18948;DHT22;9607;51.600;7.558;2023-02-22T13:52:15;20.90;70.80
18948;DHT22;9607;51.600;7.558;2023-02-22T13:54:46;20.70;69.70
18948;DHT22;9607;51.600;7.558;2023-02-22T13:57:21;20.40;70.30
18948;DHT22;9607;51.600;7.558;2023-02-22T14:00:23;20.30;72.90
18948;DHT22;9607;51.600;7.558;2023-02-22T14:03:06;20.10;73.60
18948;DHT22;9607;51.600;7.558;2023-02-22T14:05:51;20.10;76.60
18948;DHT22;9607;51.600;7.558;2023-02-22T14:08:37;20.30;80.50
18948;DHT22;9607;51.600;7.558;2023-02-22T14:14:23;20.60;76.90
18948;DHT22;9607;51.600;7.558;2023-02-22T14:17:19;20.80;74.30
18948;DHT22;9607;51.600;7.558;2023-02-22T14:20:23;20.80;75.40
18948;DHT22;9607;51.600;7.558;2023-02-22T14:22:56;20.80;73.40
18948;DHT22;9607;51.600;7.558;2023-02-22T14:25:34;20.60;74.00
18948;DHT22;9607;51.600;7.558;2023-02-22T14:28:02;20.50;75.20
18948;DHT22;9607;51.600;7.558;2023-02-22T14:30:34;20.30;74.20
18948;DHT22;9607;51.600;7.558;2023-02-22T14:33:02;20.10;74.00
18948;DHT22;9607;51.600;7.558;2023-02-22T14:35:35;19.90;69.90
18948;DHT22;9607;51.600;7.558;2023-02-22T14:38:04;19.60;69.00
18948;DHT22;9607;51.600;7.558;2023-02-22T14:40:35;19.30;67.80
18948;DHT22;9607;51.600;7.558;2023-02-22T14:43:07;19.00;70.60
18948;DHT22;9607;51.600;7.558;2023-02-22T14:45:42;18.80;71.60
18948;DHT22;9607;51.600;7.558;2023-02-22T14:48:18;18.70;73.40
18948;DHT22;9607;51.600;7.558;2023-02-22T14:50:49;18.50;72.50
18948;DHT22;9607;51.600;7.558;2023-02-22T14:53:23;18.30;73.00
18948;DHT22;9607;51.600;7.558;2023-02-22T14:55:55;18.20;74.20
18948;DHT22;9607;51.600;7.558;2023-02-22T14:58:27;18.00;73.90
18948;DHT22;9607;51.600;7.558;2023-02-22T15:00:56;17.80;74.80
18948;DHT22;9607;51.600;7.558;2023-02-22T15:03:26;17.70;75.10
18948;DHT22;9607;51.600;7.558;2023-02-22T15:06:03;17.50;75.50
18948;DHT22;9607;51.600;7.558;2023-02-22T15:08:30;17.40;76.60
18948;DHT22;9607;51.600;7.558;2023-02-22T15:10:59;17.30;76.90
18948;DHT22;9607;51.600;7.558;2023-02-22T15:13:29;17.20;77.60
18948;DHT22;9607;51.600;7.558;2023-02-22T15:16:01;17.20;78.60
18948;DHT22;9607;51.600;7.558;2023-02-22T15:18:34;17.30;77.80
18948;DHT22;9607;51.600;7.558;2023-02-22T15:21:07;17.40;77.40
18948;DHT22;9607;51.600;7.558;2023-02-22T15:23:41;17.50;79.70
18948;DHT22;9607;51.600;7.558;2023-02-22T15:26:15;17.60;80.90
18948;DHT22;9607;51.600;7.558;2023-02-22T15:28:43;17.70;79.00
18948;DHT22;9607;51.600;7.558;2023-02-22T15:31:24;17.70;78.90
18948;DHT22;9607;51.600;7.558;2023-02-22T15:33:52;17.80;79.80
18948;DHT22;9607;51.600;7.558;2023-02-22T15:36:25;17.90;81.00
18948;DHT22;9607;51.600;7.558;2023-02-22T15:38:53;18.10;81.30
18948;DHT22;9607;51.600;7.558;2023-02-22T15:41:26;18.20;81.70
18948;DHT22;9607;51.600;7.558;2023-02-22T15:43:58;18.30;80.60
18948;DHT22;9607;51.600;7.558;2023-02-22T15:46:27;18.40;80.30
18948;DHT22;9607;51.600;7.558;2023-02-22T15:49:04;18.30;80.00
18948;DHT22;9607;51.600;7.558;2023-02-22T15:51:32;18.20;79.60
18948;DHT22;9607;51.600;7.558;2023-02-22T15:54:01;18.10;80.20
18948;DHT22;9607;51.600;7.558;2023-02-22T15:56:31;18.00;80.80
18948;DHT22;9607;51.600;7.558;2023-02-22T15:59:02;17.90;81.10
18948;DHT22;9607;51.600;7.558;2023-02-22T16:01:36;17.80;81.20
18948;DHT22;9607;51.600;7.558;2023-02-22T16:04:03;17.60;81.30
18948;DHT22;9607;51.600;7.558;2023-02-22T16:06:32;17.50;81.40
18948;DHT22;9607;51.600;7.558;2023-02-22T16:09:06;17.40;82.20
18948;DHT22;9607;51.600;7.558;2023-02-22T16:11:34;17.30;83.70
18948;DHT22;9607;51.600;7.558;2023-02-22T16:14:23;17.20;85.20
18948;DHT22;9607;51.600;7.558;2023-02-22T16:17:10;17.00;85.30
18948;DHT22;9607;51.600;7.558;2023-02-22T16:19:38;16.80;86.00
18948;DHT22;9607;51.600;7.558;2023-02-22T16:22:06;16.70;86.30
18948;DHT22;9607;51.600;7.558;2023-02-22T16:24:51;16.60;88.00
18948;DHT22;9607;51.600;7.558;2023-02-22T16:27:21;16.40;87.00
18948;DHT22;9607;51.600;7.558;2023-02-22T16:30:01;16.30;88.90